Renner, South Dakota
Current Conditions -  °F | °C
As of 7:56 PM on Sunday 23 Nov 2014 (Local Time) from KFSD Reporting Station
Overcast Overcast  
Wind Chill: 15°   Ceiling: 2700
Heat Index: 29°   Visibility: 10mi
Dew Point: 21°   Wind: 23mph
Humidity: 72%   Direction: 320°NW
Pressure: 29.56"   Gusts: 31mph
Location:  43.65°N, 96.73°W
Report Text: KFSD 240156Z 32020G27KT 10SM OVC027 M02/M06 A2956 RMK AO2 PK WND 32032/0139 SLP021 T10171061
Loading
Personal Weather Stations






























Interactive Weather Map New forecast layout! Learn more

10-Day Weather Forecast

Advertisements
Track Severe Weather on mobile